createdAt,value
2023-11-03T00:02:09.485Z,9.40
2023-11-03T00:04:40.303Z,9.50
2023-11-03T00:07:15.202Z,9.50
2023-11-03T00:09:42.163Z,9.50
2023-11-03T00:12:09.138Z,9.50
2023-11-03T00:14:39.182Z,9.50
2023-11-03T00:17:07.930Z,9.60
2023-11-03T00:19:35.326Z,9.50
2023-11-03T00:22:02.238Z,9.50
2023-11-03T00:24:30.156Z,9.50
2023-11-03T00:26:57.652Z,9.40
2023-11-03T00:29:25.607Z,9.40
2023-11-03T00:31:52.505Z,9.40
2023-11-03T00:34:19.460Z,9.40
2023-11-03T00:36:47.391Z,9.50
2023-11-03T00:39:15.849Z,9.50
2023-11-03T00:41:43.460Z,9.50
2023-11-03T00:44:12.525Z,9.50
2023-11-03T00:46:39.878Z,9.50
2023-11-03T00:49:11.191Z,9.60
2023-11-03T00:51:38.367Z,9.60
2023-11-03T00:54:08.334Z,9.60
2023-11-03T00:56:37.467Z,9.60
2023-11-03T00:59:04.281Z,9.60
2023-11-03T01:01:31.175Z,9.70
2023-11-03T01:03:58.156Z,9.70
2023-11-03T01:06:25.486Z,9.70
2023-11-03T01:08:53.171Z,9.80
2023-11-03T01:11:25.050Z,9.80
2023-11-03T01:13:52.277Z,9.80
2023-11-03T01:16:23.984Z,9.80
2023-11-03T01:18:51.082Z,9.70
2023-11-03T01:21:19.794Z,9.80
2023-11-03T01:23:50.492Z,9.80
2023-11-03T01:26:18.086Z,9.80
2023-11-03T01:28:45.320Z,9.80
2023-11-03T01:31:12.926Z,9.80
2023-11-03T01:33:42.798Z,9.80
2023-11-03T01:36:10.245Z,9.80
2023-11-03T01:38:40.100Z,9.80
2023-11-03T01:41:09.211Z,9.80
2023-11-03T01:43:37.288Z,9.80
2023-11-03T01:46:04.468Z,9.80
2023-11-03T01:48:35.476Z,9.80
2023-11-03T01:51:03.685Z,9.90
2023-11-03T01:53:32.890Z,9.90
2023-11-03T01:56:01.451Z,9.90
2023-11-03T01:58:29.123Z,9.80
2023-11-03T02:00:56.195Z,9.80
2023-11-03T02:03:23.377Z,9.90
2023-11-03T02:05:50.366Z,9.80
2023-11-03T02:08:18.581Z,9.80
2023-11-03T02:10:45.839Z,9.90
2023-11-03T02:13:12.737Z,9.90
2023-11-03T02:15:40.636Z,9.90
2023-11-03T02:18:09.670Z,10.00
2023-11-03T02:20:36.639Z,10.00
2023-11-03T02:23:05.489Z,9.90
2023-11-03T02:25:32.606Z,9.90
2023-11-03T02:27:59.582Z,10.00
2023-11-03T02:30:27.184Z,9.90
2023-11-03T02:32:54.480Z,9.90
2023-11-03T02:35:21.429Z,10.00
2023-11-03T02:37:48.374Z,10.00
2023-11-03T02:40:15.964Z,10.00
2023-11-03T02:42:42.860Z,10.00
2023-11-03T02:45:11.448Z,10.00
2023-11-03T02:47:38.547Z,10.00
2023-11-03T02:50:06.438Z,10.00
2023-11-03T02:52:33.570Z,10.00
2023-11-03T02:55:00.374Z,10.00
2023-11-03T02:57:27.285Z,10.00
2023-11-03T02:59:54.076Z,10.00
2023-11-03T03:02:22.370Z,10.00
2023-11-03T03:04:49.288Z,10.10
2023-11-03T03:07:16.104Z,10.00
2023-11-03T03:09:43.592Z,10.00
2023-11-03T03:12:10.890Z,10.00
2023-11-03T03:14:38.648Z,10.00
2023-11-03T03:17:05.399Z,10.00
2023-11-03T03:19:32.273Z,10.10
2023-11-03T03:21:59.126Z,10.00
2023-11-03T03:24:25.942Z,10.00
2023-11-03T03:26:53.290Z,10.00
2023-11-03T03:29:20.067Z,10.00
2023-11-03T03:31:46.953Z,10.00
2023-11-03T03:34:14.021Z,9.90
2023-11-03T03:36:40.933Z,10.00
2023-11-03T03:39:07.751Z,10.00
2023-11-03T03:41:34.666Z,10.10
2023-11-03T03:44:01.693Z,10.10
2023-11-03T03:46:29.205Z,10.10
2023-11-03T03:48:56.991Z,10.10
2023-11-03T03:51:24.023Z,10.10
2023-11-03T03:53:51.262Z,10.00
2023-11-03T03:56:18.485Z,10.00
2023-11-03T03:58:45.200Z,10.10
2023-11-03T04:01:11.985Z,10.10
2023-11-03T04:03:38.793Z,10.10
2023-11-03T04:06:05.870Z,10.10
2023-11-03T04:08:32.700Z,10.10
2023-11-03T04:11:01.760Z,10.10
2023-11-03T04:13:28.540Z,10.10
2023-11-03T04:15:55.455Z,10.10
2023-11-03T04:18:23.479Z,10.10
2023-11-03T04:20:50.443Z,10.10
2023-11-03T04:23:17.760Z,10.10
2023-11-03T04:25:44.647Z,10.10
2023-11-03T04:28:11.377Z,10.10
2023-11-03T04:30:38.181Z,10.10
2023-11-03T04:33:05.269Z,10.10
2023-11-03T04:35:32.434Z,10.10
2023-11-03T04:37:59.569Z,10.10
2023-11-03T04:40:26.509Z,10.10
2023-11-03T04:42:53.685Z,10.10
2023-11-03T04:45:21.560Z,10.20
2023-11-03T04:47:50.249Z,10.20
2023-11-03T04:50:17.984Z,10.20
2023-11-03T04:52:44.839Z,10.20
2023-11-03T04:55:11.729Z,10.20
2023-11-03T04:57:39.276Z,10.20
2023-11-03T05:00:13.519Z,10.20
2023-11-03T05:02:41.073Z,10.20
2023-11-03T05:05:08.452Z,10.20
2023-11-03T05:07:38.492Z,10.20
2023-11-03T05:10:06.757Z,10.20
2023-11-03T05:12:34.325Z,10.10
2023-11-03T05:15:01.242Z,10.10
2023-11-03T05:17:28.141Z,10.20
2023-11-03T05:19:55.051Z,10.10
2023-11-03T05:22:21.803Z,10.20
2023-11-03T05:24:48.744Z,10.20
2023-11-03T05:27:15.573Z,10.20
2023-11-03T05:29:42.354Z,10.20
2023-11-03T05:32:10.310Z,10.10
2023-11-03T05:34:37.315Z,10.10
2023-11-03T05:37:04.656Z,10.10
2023-11-03T05:39:33.610Z,10.10
2023-11-03T05:42:00.459Z,10.20
2023-11-03T05:44:27.628Z,10.20
2023-11-03T05:46:54.858Z,10.20
2023-11-03T05:49:21.778Z,10.10
2023-11-03T05:51:49.756Z,10.10
2023-11-03T05:54:17.142Z,10.10
2023-11-03T05:56:44.263Z,10.10
2023-11-03T05:59:12.165Z,10.00
2023-11-03T06:01:39.564Z,10.00
2023-11-03T06:04:06.861Z,10.10
2023-11-03T06:06:34.057Z,10.10
2023-11-03T06:09:00.990Z,10.00
2023-11-03T06:11:28.436Z,9.90
2023-11-03T06:14:01.686Z,9.90
2023-11-03T06:16:31.099Z,10.00
2023-11-03T06:19:06.221Z,10.00
2023-11-03T06:21:37.002Z,10.00
2023-11-03T06:24:04.303Z,10.00
2023-11-03T06:26:31.550Z,9.90
2023-11-03T06:28:58.398Z,9.90
2023-11-03T06:31:25.481Z,9.90
2023-11-03T06:33:53.076Z,9.90
2023-11-03T06:36:20.450Z,9.90
2023-11-03T06:38:48.342Z,9.80
2023-11-03T06:41:16.696Z,9.90
2023-11-03T06:43:47.333Z,9.90
2023-11-03T06:46:15.886Z,9.90
2023-11-03T06:48:44.335Z,9.90
2023-11-03T06:51:11.916Z,10.00
2023-11-03T06:53:39.136Z,9.90
2023-11-03T06:56:06.511Z,9.90
2023-11-03T06:58:36.876Z,9.90
2023-11-03T07:01:06.116Z,9.90
2023-11-03T07:03:33.932Z,9.90
2023-11-03T07:06:05.462Z,9.90
2023-11-03T07:08:32.540Z,9.80
2023-11-03T07:10:59.721Z,9.90
2023-11-03T07:13:29.062Z,9.90
2023-11-03T07:15:56.468Z,9.90
2023-11-03T07:18:23.535Z,9.80
2023-11-03T07:20:50.411Z,9.80
2023-11-03T07:23:18.605Z,9.80
2023-11-03T07:25:47.317Z,9.80
2023-11-03T07:28:14.256Z,9.70
2023-11-03T07:30:41.213Z,9.70
2023-11-03T07:33:08.834Z,9.70
2023-11-03T07:35:35.649Z,9.70
2023-11-03T07:38:04.752Z,9.70
2023-11-03T07:40:32.489Z,9.60
2023-11-03T07:42:59.303Z,9.60
2023-11-03T07:45:29.946Z,9.50
2023-11-03T07:48:00.800Z,9.50
2023-11-03T07:50:27.639Z,9.50
2023-11-03T07:52:54.393Z,9.50
2023-11-03T07:55:21.824Z,9.60
2023-11-03T07:57:49.912Z,9.50
2023-11-03T08:00:18.036Z,9.50
2023-11-03T08:02:45.408Z,9.50
2023-11-03T08:05:13.374Z,9.40
2023-11-03T08:07:40.528Z,9.40
2023-11-03T08:10:12.190Z,9.40
2023-11-03T08:12:40.020Z,9.40
2023-11-03T08:15:14.798Z,9.50
2023-11-03T08:17:45.565Z,9.60
2023-11-03T08:20:14.576Z,9.60
2023-11-03T08:22:41.733Z,9.70
2023-11-03T08:25:08.907Z,9.70
2023-11-03T08:27:36.661Z,9.80
2023-11-03T08:30:05.449Z,9.80
2023-11-03T08:32:32.664Z,9.80
2023-11-03T08:35:00.298Z,9.80
2023-11-03T08:37:29.582Z,9.90
2023-11-03T08:39:56.602Z,10.00
2023-11-03T08:42:23.456Z,10.00
2023-11-03T08:44:50.312Z,10.10
2023-11-03T08:47:20.289Z,10.10
2023-11-03T08:49:50.081Z,10.20
2023-11-03T08:52:17.041Z,10.40
2023-11-03T08:54:43.911Z,10.40
2023-11-03T08:57:10.874Z,10.50
2023-11-03T08:59:40.608Z,10.70
2023-11-03T09:02:07.539Z,10.90
2023-11-03T09:04:34.841Z,11.00
2023-11-03T09:07:04.754Z,11.10
2023-11-03T09:09:31.674Z,11.20
2023-11-03T09:11:58.769Z,11.30
2023-11-03T09:14:26.563Z,11.30
2023-11-03T09:16:54.946Z,11.50
2023-11-03T09:19:21.896Z,11.50
2023-11-03T09:21:50.425Z,11.50
2023-11-03T09:24:17.504Z,11.50
2023-11-03T09:29:12.456Z,11.60
2023-11-03T09:31:39.240Z,11.60
2023-11-03T09:34:06.626Z,11.70
2023-11-03T09:36:34.007Z,11.70
2023-11-03T09:39:00.881Z,11.80
2023-11-03T09:41:30.559Z,11.70
2023-11-03T09:43:58.184Z,11.80
2023-11-03T09:46:25.900Z,11.70
2023-11-03T09:48:54.067Z,11.70
2023-11-03T09:51:22.628Z,11.70
2023-11-03T09:53:54.558Z,11.70
2023-11-03T09:56:23.496Z,11.70
2023-11-03T09:58:50.872Z,11.70
2023-11-03T10:01:18.320Z,11.90
2023-11-03T10:03:58.887Z,12.00
2023-11-03T10:06:28.095Z,12.00
2023-11-03T10:08:59.784Z,12.10
2023-11-03T10:11:27.866Z,12.20
2023-11-03T10:13:55.346Z,12.30
2023-11-03T10:16:28.173Z,12.40
2023-11-03T10:19:05.332Z,12.20
2023-11-03T10:21:32.554Z,12.20
2023-11-03T10:24:01.002Z,12.20
2023-11-03T10:26:29.512Z,12.30
2023-11-03T10:28:56.632Z,12.40
2023-11-03T10:31:23.981Z,12.50
2023-11-03T10:33:52.369Z,12.60
2023-11-03T10:36:20.628Z,12.70
2023-11-03T10:38:56.842Z,12.80
2023-11-03T10:41:29.207Z,12.90
2023-11-03T10:43:59.978Z,13.00
2023-11-03T10:46:43.357Z,13.30
2023-11-03T10:49:20.226Z,13.40
2023-11-03T10:52:13.615Z,13.30
2023-11-03T10:55:08.817Z,13.50
2023-11-03T10:57:41.193Z,13.60
2023-11-03T11:00:31.377Z,13.80
2023-11-03T11:03:01.385Z,13.80
2023-11-03T11:05:42.853Z,13.90
2023-11-03T11:08:12.296Z,13.90
2023-11-03T11:10:43.441Z,13.70
2023-11-03T11:13:21.171Z,13.60
2023-11-03T11:16:04.501Z,13.50
2023-11-03T11:18:43.449Z,13.50
2023-11-03T11:21:12.226Z,13.40
2023-11-03T11:23:40.601Z,13.30
2023-11-03T11:26:31.648Z,13.10
2023-11-03T11:29:02.849Z,13.10
2023-11-03T11:31:30.266Z,13.10
2023-11-03T11:34:08.257Z,13.20
2023-11-03T11:36:37.054Z,13.40
2023-11-03T11:39:15.409Z,13.50
2023-11-03T11:41:46.346Z,13.40
2023-11-03T11:44:17.255Z,13.40
2023-11-03T11:46:44.227Z,13.30
2023-11-03T11:49:14.254Z,13.30
2023-11-03T11:51:42.159Z,13.20
2023-11-03T11:54:11.745Z,13.10
2023-11-03T11:56:38.935Z,12.90
2023-11-03T11:59:10.954Z,12.90
2023-11-03T12:01:38.281Z,13.00
2023-11-03T12:04:05.725Z,13.00
2023-11-03T12:06:32.700Z,13.10
2023-11-03T12:08:59.610Z,13.10
2023-11-03T12:11:27.619Z,13.10
2023-11-03T12:13:54.923Z,13.00
2023-11-03T12:16:23.141Z,13.10
2023-11-03T12:18:55.108Z,13.30
2023-11-03T12:21:28.158Z,13.30
2023-11-03T12:24:01.345Z,13.30
2023-11-03T12:26:29.426Z,13.40
2023-11-03T12:29:41.793Z,13.40
2023-11-03T12:32:10.007Z,13.30
2023-11-03T12:34:40.325Z,13.30
2023-11-03T12:37:08.646Z,13.30
2023-11-03T12:39:52.867Z,13.30
2023-11-03T12:42:23.919Z,13.30
2023-11-03T12:44:57.310Z,13.20
2023-11-03T12:47:47.143Z,13.10
2023-11-03T12:50:19.015Z,13.10
2023-11-03T12:53:04.955Z,13.10
2023-11-03T12:55:35.834Z,13.00
2023-11-03T12:58:11.337Z,12.80
2023-11-03T13:00:38.786Z,12.70
2023-11-03T13:03:06.438Z,12.70
2023-11-03T13:05:34.704Z,12.70
2023-11-03T13:08:04.661Z,12.80
2023-11-03T13:10:32.512Z,12.60
2023-11-03T13:13:01.360Z,12.60
2023-11-03T13:15:29.261Z,12.50
2023-11-03T13:17:56.916Z,12.50
2023-11-03T13:20:25.962Z,12.50
2023-11-03T13:23:00.329Z,12.50
2023-11-03T13:25:29.312Z,12.50
2023-11-03T13:27:56.520Z,12.30
2023-11-03T13:30:24.305Z,12.30
2023-11-03T13:32:55.438Z,12.30
2023-11-03T13:35:24.440Z,12.30
2023-11-03T13:37:52.548Z,12.30
2023-11-03T13:40:22.723Z,12.30
2023-11-03T13:42:51.869Z,12.40
2023-11-03T13:45:18.936Z,12.50
2023-11-03T13:47:47.993Z,12.50
2023-11-03T13:50:21.472Z,12.50
2023-11-03T13:52:51.318Z,12.40
2023-11-03T13:55:22.869Z,12.40
2023-11-03T13:57:52.423Z,12.40
2023-11-03T14:00:19.682Z,12.40
2023-11-03T14:02:46.720Z,12.40
2023-11-03T14:05:13.698Z,12.30
2023-11-03T14:07:41.435Z,12.40
2023-11-03T14:10:15.509Z,12.40
2023-11-03T14:12:44.475Z,12.50
2023-11-03T14:15:12.330Z,12.50
2023-11-03T14:17:40.866Z,12.50
2023-11-03T14:20:10.544Z,12.60
2023-11-03T14:22:37.844Z,12.60
2023-11-03T14:25:08.222Z,12.60
2023-11-03T14:27:40.475Z,12.60
2023-11-03T14:30:13.889Z,12.50
2023-11-03T14:32:41.732Z,12.60
2023-11-03T14:35:13.286Z,12.50
2023-11-03T14:37:42.729Z,12.50
2023-11-03T14:40:15.834Z,12.40
2023-11-03T14:42:45.874Z,12.30
2023-11-03T14:45:12.695Z,12.20
2023-11-03T14:47:45.310Z,12.30
2023-11-03T14:50:14.231Z,12.20
2023-11-03T14:52:56.076Z,12.20
2023-11-03T14:55:29.625Z,12.10
2023-11-03T14:57:56.620Z,12.10
2023-11-03T15:00:29.801Z,12.00
2023-11-03T15:02:58.480Z,12.00
2023-11-03T15:05:25.932Z,12.00
2023-11-03T15:07:53.014Z,12.00
2023-11-03T15:10:21.086Z,11.90
2023-11-03T15:12:47.827Z,11.90
2023-11-03T15:15:14.986Z,11.80
2023-11-03T15:17:42.500Z,11.90
2023-11-03T15:20:15.864Z,11.80
2023-11-03T15:22:46.582Z,11.70
2023-11-03T15:25:24.742Z,11.60
2023-11-03T15:28:02.095Z,11.60
2023-11-03T15:30:36.950Z,11.50
2023-11-03T15:33:52.915Z,11.40
2023-11-03T15:36:13.202Z,11.40
2023-11-03T15:38:58.575Z,11.40
2023-11-03T15:41:41.430Z,11.20
2023-11-03T15:44:21.653Z,11.20
2023-11-03T15:46:51.481Z,11.10
2023-11-03T15:52:31.313Z,11.00
2023-11-03T15:59:05.218Z,10.70
2023-11-03T16:01:32.809Z,10.60
2023-11-03T16:03:59.779Z,10.60
2023-11-03T16:06:28.317Z,10.50
2023-11-03T16:08:55.302Z,10.50
2023-11-03T16:11:22.233Z,10.50
2023-11-03T16:13:51.958Z,10.50
2023-11-03T16:16:18.800Z,10.40
2023-11-03T16:18:46.421Z,10.30
2023-11-03T16:21:13.952Z,10.20
2023-11-03T16:23:40.772Z,10.20
2023-11-03T16:26:09.233Z,10.10
2023-11-03T16:28:36.164Z,10.10
2023-11-03T16:31:03.104Z,10.00
2023-11-03T16:33:29.978Z,10.00
2023-11-03T16:35:58.114Z,9.90
2023-11-03T16:38:25.191Z,9.90
2023-11-03T16:40:52.098Z,9.90
2023-11-03T16:43:19.232Z,9.80
2023-11-03T16:45:46.107Z,9.80
2023-11-03T16:48:20.628Z,9.70
2023-11-03T16:50:53.100Z,9.60
2023-11-03T16:53:19.886Z,9.60
2023-11-03T16:55:51.276Z,9.60
2023-11-03T16:58:19.449Z,9.60
2023-11-03T17:03:40.387Z,9.70
2023-11-03T17:06:07.838Z,9.70
2023-11-03T17:08:34.708Z,9.60
2023-11-03T17:11:02.258Z,9.60
2023-11-03T17:13:29.553Z,9.60
2023-11-03T17:15:56.408Z,9.60
2023-11-03T17:18:23.769Z,9.50
2023-11-03T17:20:50.737Z,9.50
2023-11-03T17:23:17.970Z,9.40
2023-11-03T17:25:45.588Z,9.40
2023-11-03T17:28:14.011Z,9.40
2023-11-03T17:30:41.079Z,9.40
2023-11-03T17:33:11.496Z,9.30
2023-11-03T17:35:39.111Z,9.30
2023-11-03T17:38:06.808Z,9.30
2023-11-03T17:40:34.692Z,9.30
2023-11-03T17:43:01.691Z,9.30
2023-11-03T17:45:28.770Z,9.30
2023-11-03T17:47:56.225Z,9.20
2023-11-03T17:50:23.211Z,9.20
2023-11-03T17:52:51.823Z,9.20
2023-11-03T17:55:22.785Z,9.10
2023-11-03T17:57:51.965Z,9.10
2023-11-03T18:00:20.169Z,9.10
2023-11-03T18:02:47.436Z,9.00
2023-11-03T18:05:14.829Z,9.00
2023-11-03T18:07:42.089Z,9.00
2023-11-03T18:10:13.638Z,9.00
2023-11-03T18:12:41.649Z,9.00
2023-11-03T18:15:12.077Z,9.00
2023-11-03T18:17:40.126Z,8.90
2023-11-03T18:20:12.964Z,8.90
2023-11-03T18:22:44.777Z,8.80
2023-11-03T18:25:12.559Z,8.70
2023-11-03T18:27:43.227Z,8.80
2023-11-03T18:30:11.718Z,8.70
2023-11-03T18:32:40.161Z,8.80
2023-11-03T18:35:08.810Z,8.80
2023-11-03T18:37:39.040Z,8.80
2023-11-03T18:40:08.531Z,8.80
2023-11-03T18:42:35.797Z,8.80
2023-11-03T18:45:03.288Z,8.80
2023-11-03T18:47:30.827Z,8.80
2023-11-03T18:52:32.009Z,8.80
2023-11-03T18:55:56.697Z,8.80
2023-11-03T18:58:31.258Z,8.80
2023-11-03T19:07:09.433Z,8.80
2023-11-03T19:08:24.290Z,8.80
2023-11-03T19:10:52.266Z,8.90
2023-11-03T19:13:19.690Z,9.00
2023-11-03T19:15:46.658Z,9.00
2023-11-03T19:18:14.072Z,9.00
2023-11-03T19:20:41.321Z,9.00
2023-11-03T19:23:08.680Z,9.10
2023-11-03T19:25:39.156Z,9.10
2023-11-03T19:28:08.347Z,9.10
2023-11-03T19:30:37.149Z,9.20
2023-11-03T19:33:04.828Z,9.20
2023-11-03T19:35:33.583Z,9.20
2023-11-03T19:38:00.926Z,9.10
2023-11-03T19:40:28.218Z,9.10
2023-11-03T19:42:55.197Z,9.10
2023-11-03T19:45:22.198Z,9.20
2023-11-03T19:47:49.089Z,9.10
2023-11-03T19:50:16.680Z,9.10
2023-11-03T19:52:43.545Z,9.10
2023-11-03T19:55:10.721Z,9.10
2023-11-03T19:57:38.069Z,9.20
2023-11-03T20:00:08.604Z,9.10
2023-11-03T20:02:36.563Z,9.10
2023-11-03T20:05:05.524Z,9.20
2023-11-03T20:07:32.643Z,9.20
2023-11-03T20:10:00.604Z,9.20
2023-11-03T20:12:27.922Z,9.20
2023-11-03T20:14:54.745Z,9.20
2023-11-03T20:17:23.342Z,9.30
2023-11-03T20:19:51.266Z,9.20
2023-11-03T20:22:18.419Z,9.20
2023-11-03T20:24:45.304Z,9.20
2023-11-03T20:27:13.385Z,9.20
2023-11-03T20:29:42.682Z,9.20
2023-11-03T20:32:09.579Z,9.20
2023-11-03T20:34:36.924Z,9.20
2023-11-03T20:37:04.313Z,9.20
2023-11-03T20:39:31.192Z,9.20
2023-11-03T20:41:58.219Z,9.20
2023-11-03T20:44:27.484Z,9.20
2023-11-03T20:46:55.942Z,9.20
2023-11-03T20:49:22.850Z,9.30
2023-11-03T20:51:50.847Z,9.30
2023-11-03T20:54:19.130Z,9.40
2023-11-03T20:56:48.025Z,9.40
2023-11-03T20:59:15.252Z,9.40
2023-11-03T21:01:42.614Z,9.40
2023-11-03T21:04:09.561Z,9.30
2023-11-03T21:06:37.129Z,9.40
2023-11-03T21:09:05.198Z,9.40
2023-11-03T21:11:32.889Z,9.40
2023-11-03T21:14:00.147Z,9.40
2023-11-03T21:16:28.277Z,9.40
2023-11-03T21:18:55.359Z,9.40
2023-11-03T21:21:22.261Z,9.50
2023-11-03T21:23:51.493Z,9.40
2023-11-03T21:26:21.806Z,9.40
2023-11-03T21:28:48.886Z,9.40
2023-11-03T21:31:16.303Z,9.40
2023-11-03T21:33:45.028Z,9.40
2023-11-03T21:36:12.698Z,9.50
2023-11-03T21:38:39.640Z,9.40
2023-11-03T21:41:07.632Z,9.40
2023-11-03T21:43:35.074Z,9.30
2023-11-03T21:46:02.055Z,9.30
2023-11-03T21:48:29.572Z,9.30
2023-11-03T21:50:57.342Z,9.10
2023-11-03T21:53:24.245Z,9.00
2023-11-03T21:55:52.162Z,8.90
2023-11-03T21:58:20.216Z,8.90
2023-11-03T22:00:47.412Z,8.80
2023-11-03T22:03:14.367Z,8.90
2023-11-03T22:05:41.293Z,8.90
2023-11-03T22:08:15.545Z,8.80
2023-11-03T22:11:03.287Z,8.70
2023-11-03T22:13:32.797Z,8.70
2023-11-03T22:16:00.982Z,8.70
2023-11-03T22:18:28.245Z,8.60
2023-11-03T22:20:55.130Z,8.60
2023-11-03T22:23:22.041Z,8.60
2023-11-03T22:25:49.071Z,8.60
2023-11-03T22:28:16.437Z,8.60
2023-11-03T22:30:46.115Z,8.50
2023-11-03T22:33:13.450Z,8.60
2023-11-03T22:35:43.209Z,8.50
2023-11-03T22:38:11.468Z,8.50
2023-11-03T22:40:38.361Z,8.50
2023-11-03T22:43:05.491Z,8.40
2023-11-03T22:45:32.590Z,8.50
2023-11-03T22:48:02.433Z,8.40
2023-11-03T22:50:31.254Z,8.40
2023-11-03T22:52:58.008Z,8.40
2023-11-03T22:55:25.139Z,8.40
2023-11-03T22:57:52.062Z,8.30
2023-11-03T23:00:25.825Z,8.30
2023-11-03T23:02:52.750Z,8.40
2023-11-03T23:05:21.133Z,8.30
2023-11-03T23:07:48.620Z,8.30
2023-11-03T23:10:15.660Z,8.30
2023-11-03T23:12:43.048Z,8.20
2023-11-03T23:15:11.094Z,8.20
2023-11-03T23:17:39.263Z,8.10
2023-11-03T23:20:13.349Z,8.10
2023-11-03T23:22:40.894Z,8.10
2023-11-03T23:25:12.470Z,8.20
2023-11-03T23:27:43.338Z,8.10
2023-11-03T23:30:11.538Z,8.00
2023-11-03T23:32:38.476Z,7.90
2023-11-03T23:35:05.990Z,7.90
2023-11-03T23:37:33.278Z,8.00
2023-11-03T23:40:00.450Z,8.00
2023-11-03T23:42:27.424Z,8.00
2023-11-03T23:44:55.135Z,8.00
2023-11-03T23:47:22.947Z,8.00
2023-11-03T23:49:49.771Z,8.00
2023-11-03T23:52:16.538Z,8.00
2023-11-03T23:54:43.366Z,7.90
2023-11-03T23:57:10.305Z,7.90
2023-11-03T23:59:37.098Z,7.90
